Mcbride, Canada
Current Conditions -  °F | °C
As of 12:00 AM on Saturday 29 Nov 2014 (Local Time) from CYQZ Reporting Station
Clear Clear  
Wind Chill: -23°   Ceiling: Unl
Heat Index: -6°   Visibility: 9mi
Dew Point: -13°   Wind: 10mph
Humidity: 71%   Direction: 340°NNW
Pressure: 29.97"   Gusts: 17mph
Location:  53.3°N, 120.17°W
Report Text: CYQZ 290800Z AUTO 34009G15KT 9SM CLR M21/M25 A2997 RMK SLP205
Loading
Personal Weather Stations






























Interactive Weather Map New forecast layout! Learn more

10-Day Weather Forecast

Advertisements
Track Severe Weather on mobile